KSBA/SBA METAR and TAF weather

Enter ICAO airport designator
Station Type Date Time Source
KSBA METAR 2022/05/24 12:53 UTC NOAA

KSBA 241253Z 01003KT 6SM HZ OVC008 14/12 A2983 RMK AO2 SLP101 T01390122 $


Station Type Date Time Source
KSBA Decoded METAR 2022/05/24 12:53 UTC NOAA

SANTA BARBARA MUNICIPAL, CA, United States (KSBA) 34-26N 119-51W 3M
May 24, 2022 - 08:53 AM EDT / 2022.05.24 1253 UTC
Wind: from the N (010 degrees) at 3 MPH (3 KT):0
Visibility: 6 mile(s):0
Sky conditions: overcast
Weather: haze
Temperature: 57.0 F (13.9 C)
Dew Point: 54.0 F (12.2 C)
Relative Humidity: 89%
Pressure (altimeter): 29.83 in. Hg (1010 hPa)
ob: KSBA 241253Z 01003KT 6SM HZ OVC008 14/12 A2983 RMK AO2 SLP101 T01390122
cycle: 13

Station Type Date Time Source
KSBA TAF 2022/05/24 13:12 UTC NOAA

TAF
AMD KSBA 241310Z 2413/2512 VRB03KT 6SM HZ OVC008
FM241700 16006KT 6SM HZ BKN010
FM241900 23008KT P6SM FEW008
FM250200 11004KT 5SM HZ SCT008
FM250500 09004KT 4SM BR OVC006
AMD NOT SKED

Example: see airport list